sensor_id;sensor_type;location;lat;lon;timestamp;P1;durP1;ratioP1;P2;durP2;ratioP2
75038;SDS011;63609;49.992;14.512;2022-12-07T00:01:40;3.35;;;1.55;;
75038;SDS011;63609;49.992;14.512;2022-12-07T00:04:12;4.10;;;2.00;;
75038;SDS011;63609;49.992;14.512;2022-12-07T00:06:42;2.58;;;1.23;;
75038;SDS011;63609;49.992;14.512;2022-12-07T00:09:12;3.28;;;1.45;;
75038;SDS011;63609;49.992;14.512;2022-12-07T00:11:41;2.30;;;1.55;;
75038;SDS011;63609;49.992;14.512;2022-12-07T00:14:10;3.40;;;2.00;;
75038;SDS011;63609;49.992;14.512;2022-12-07T00:16:38;3.08;;;1.60;;
75038;SDS011;63609;49.992;14.512;2022-12-07T00:19:05;3.88;;;1.60;;
75038;SDS011;63609;49.992;14.512;2022-12-07T00:21:35;2.47;;;1.33;;
75038;SDS011;63609;49.992;14.512;2022-12-07T00:26:31;3.67;;;1.63;;
75038;SDS011;63609;49.992;14.512;2022-12-07T00:29:02;3.30;;;1.67;;
75038;SDS011;63609;49.992;14.512;2022-12-07T00:31:32;3.22;;;1.85;;
75038;SDS011;63609;49.992;14.512;2022-12-07T00:34:02;4.18;;;2.28;;
75038;SDS011;63609;49.992;14.512;2022-12-07T00:36:30;2.53;;;1.70;;
75038;SDS011;63609;49.992;14.512;2022-12-07T00:39:00;4.47;;;2.05;;
75038;SDS011;63609;49.992;14.512;2022-12-07T00:41:27;3.65;;;2.22;;
75038;SDS011;63609;49.992;14.512;2022-12-07T00:43:55;4.18;;;1.83;;
75038;SDS011;63609;49.992;14.512;2022-12-07T00:46:23;3.38;;;2.08;;
75038;SDS011;63609;49.992;14.512;2022-12-07T00:48:51;3.35;;;1.98;;
75038;SDS011;63609;49.992;14.512;2022-12-07T00:51:20;4.13;;;1.70;;
75038;SDS011;63609;49.992;14.512;2022-12-07T00:53:48;4.57;;;2.13;;
75038;SDS011;63609;49.992;14.512;2022-12-07T00:56:20;3.55;;;1.98;;
75038;SDS011;63609;49.992;14.512;2022-12-07T00:58:54;6.50;;;2.53;;
75038;SDS011;63609;49.992;14.512;2022-12-07T01:01:22;4.68;;;2.30;;
75038;SDS011;63609;49.992;14.512;2022-12-07T01:03:50;6.38;;;3.13;;
75038;SDS011;63609;49.992;14.512;2022-12-07T01:06:19;5.85;;;3.35;;
75038;SDS011;63609;49.992;14.512;2022-12-07T01:08:46;3.28;;;2.20;;
75038;SDS011;63609;49.992;14.512;2022-12-07T01:11:15;4.65;;;2.72;;
75038;SDS011;63609;49.992;14.512;2022-12-07T01:13:46;4.90;;;2.30;;
75038;SDS011;63609;49.992;14.512;2022-12-07T01:16:14;5.75;;;2.83;;
75038;SDS011;63609;49.992;14.512;2022-12-07T01:18:44;4.97;;;2.58;;
75038;SDS011;63609;49.992;14.512;2022-12-07T01:21:14;5.68;;;3.20;;
75038;SDS011;63609;49.992;14.512;2022-12-07T01:23:43;5.60;;;2.70;;
75038;SDS011;63609;49.992;14.512;2022-12-07T01:26:12;4.88;;;3.05;;
75038;SDS011;63609;49.992;14.512;2022-12-07T01:28:41;6.00;;;4.13;;
75038;SDS011;63609;49.992;14.512;2022-12-07T01:31:09;5.25;;;3.10;;
75038;SDS011;63609;49.992;14.512;2022-12-07T01:33:38;6.78;;;3.67;;
75038;SDS011;63609;49.992;14.512;2022-12-07T01:38:41;5.80;;;2.45;;
75038;SDS011;63609;49.992;14.512;2022-12-07T01:41:09;5.70;;;2.88;;
75038;SDS011;63609;49.992;14.512;2022-12-07T01:43:36;3.90;;;2.50;;
75038;SDS011;63609;49.992;14.512;2022-12-07T01:46:03;4.65;;;2.80;;
75038;SDS011;63609;49.992;14.512;2022-12-07T01:48:35;4.05;;;2.67;;
75038;SDS011;63609;49.992;14.512;2022-12-07T01:51:09;6.72;;;2.88;;
75038;SDS011;63609;49.992;14.512;2022-12-07T01:53:40;4.30;;;2.70;;
75038;SDS011;63609;49.992;14.512;2022-12-07T01:56:10;4.40;;;2.72;;
75038;SDS011;63609;49.992;14.512;2022-12-07T01:58:43;4.05;;;2.50;;
75038;SDS011;63609;49.992;14.512;2022-12-07T02:01:11;5.63;;;2.55;;
75038;SDS011;63609;49.992;14.512;2022-12-07T02:03:39;3.78;;;2.33;;
75038;SDS011;63609;49.992;14.512;2022-12-07T02:06:08;5.32;;;3.40;;
75038;SDS011;63609;49.992;14.512;2022-12-07T02:08:37;6.07;;;2.53;;
75038;SDS011;63609;49.992;14.512;2022-12-07T02:11:05;6.03;;;2.95;;
75038;SDS011;63609;49.992;14.512;2022-12-07T02:13:34;4.05;;;2.47;;
75038;SDS011;63609;49.992;14.512;2022-12-07T02:29:47;5.00;;;2.40;;
75038;SDS011;63609;49.992;14.512;2022-12-07T02:32:24;4.85;;;3.25;;
75038;SDS011;63609;49.992;14.512;2022-12-07T02:35:00;5.50;;;2.40;;
75038;SDS011;63609;49.992;14.512;2022-12-07T02:40:20;4.93;;;2.60;;
75038;SDS011;63609;49.992;14.512;2022-12-07T02:42:55;4.18;;;2.80;;
75038;SDS011;63609;49.992;14.512;2022-12-07T02:45:37;5.78;;;3.75;;
75038;SDS011;63609;49.992;14.512;2022-12-07T02:48:07;6.47;;;3.15;;
75038;SDS011;63609;49.992;14.512;2022-12-07T02:50:36;5.85;;;3.58;;
75038;SDS011;63609;49.992;14.512;2022-12-07T02:53:03;5.70;;;2.83;;
75038;SDS011;63609;49.992;14.512;2022-12-07T02:55:36;6.25;;;3.90;;
75038;SDS011;63609;49.992;14.512;2022-12-07T03:01:18;4.93;;;3.05;;
75038;SDS011;63609;49.992;14.512;2022-12-07T03:04:09;5.00;;;3.72;;
75038;SDS011;63609;49.992;14.512;2022-12-07T03:06:49;2.92;;;1.90;;
75038;SDS011;63609;49.992;14.512;2022-12-07T03:12:00;5.30;;;2.88;;
75038;SDS011;63609;49.992;14.512;2022-12-07T03:14:35;6.75;;;3.53;;
75038;SDS011;63609;49.992;14.512;2022-12-07T03:17:18;4.63;;;2.67;;
75038;SDS011;63609;49.992;14.512;2022-12-07T03:19:51;5.75;;;2.95;;
75038;SDS011;63609;49.992;14.512;2022-12-07T03:22:23;7.03;;;3.90;;
75038;SDS011;63609;49.992;14.512;2022-12-07T03:27:34;7.05;;;3.20;;
75038;SDS011;63609;49.992;14.512;2022-12-07T03:30:08;6.32;;;3.78;;
75038;SDS011;63609;49.992;14.512;2022-12-07T03:32:45;7.43;;;3.90;;
75038;SDS011;63609;49.992;14.512;2022-12-07T03:35:20;6.47;;;3.90;;
75038;SDS011;63609;49.992;14.512;2022-12-07T03:37:56;5.18;;;2.78;;
75038;SDS011;63609;49.992;14.512;2022-12-07T03:40:26;4.32;;;2.58;;
75038;SDS011;63609;49.992;14.512;2022-12-07T03:42:58;8.10;;;3.22;;
75038;SDS011;63609;49.992;14.512;2022-12-07T03:45:31;4.90;;;2.20;;
75038;SDS011;63609;49.992;14.512;2022-12-07T03:50:50;5.53;;;2.50;;
75038;SDS011;63609;49.992;14.512;2022-12-07T03:53:24;4.93;;;2.55;;
75038;SDS011;63609;49.992;14.512;2022-12-07T03:55:54;6.72;;;3.03;;
75038;SDS011;63609;49.992;14.512;2022-12-07T03:58:22;6.53;;;2.63;;
75038;SDS011;63609;49.992;14.512;2022-12-07T04:00:51;4.50;;;3.05;;
75038;SDS011;63609;49.992;14.512;2022-12-07T04:03:18;4.82;;;3.03;;
75038;SDS011;63609;49.992;14.512;2022-12-07T04:05:45;3.88;;;2.40;;
75038;SDS011;63609;49.992;14.512;2022-12-07T04:08:12;4.25;;;2.65;;
75038;SDS011;63609;49.992;14.512;2022-12-07T04:10:38;4.90;;;3.13;;
75038;SDS011;63609;49.992;14.512;2022-12-07T04:15:34;4.15;;;1.98;;
75038;SDS011;63609;49.992;14.512;2022-12-07T04:18:01;4.22;;;2.25;;
75038;SDS011;63609;49.992;14.512;2022-12-07T04:20:28;4.85;;;3.00;;
75038;SDS011;63609;49.992;14.512;2022-12-07T04:22:55;5.88;;;3.15;;
75038;SDS011;63609;49.992;14.512;2022-12-07T04:25:21;6.65;;;3.20;;
75038;SDS011;63609;49.992;14.512;2022-12-07T04:27:48;4.57;;;2.75;;
75038;SDS011;63609;49.992;14.512;2022-12-07T04:30:15;4.43;;;2.30;;
75038;SDS011;63609;49.992;14.512;2022-12-07T04:32:41;5.05;;;2.45;;
75038;SDS011;63609;49.992;14.512;2022-12-07T04:35:08;5.78;;;3.03;;
75038;SDS011;63609;49.992;14.512;2022-12-07T04:37:36;5.35;;;3.65;;
75038;SDS011;63609;49.992;14.512;2022-12-07T04:40:06;5.57;;;3.28;;
75038;SDS011;63609;49.992;14.512;2022-12-07T04:42:34;8.95;;;3.78;;
75038;SDS011;63609;49.992;14.512;2022-12-07T04:45:00;7.45;;;4.15;;
75038;SDS011;63609;49.992;14.512;2022-12-07T04:47:27;7.07;;;3.92;;
75038;SDS011;63609;49.992;14.512;2022-12-07T04:52:20;6.85;;;4.22;;
75038;SDS011;63609;49.992;14.512;2022-12-07T04:54:49;6.63;;;3.30;;
75038;SDS011;63609;49.992;14.512;2022-12-07T04:57:16;6.55;;;3.15;;
75038;SDS011;63609;49.992;14.512;2022-12-07T04:59:43;5.88;;;3.13;;
75038;SDS011;63609;49.992;14.512;2022-12-07T05:02:11;9.73;;;4.20;;
75038;SDS011;63609;49.992;14.512;2022-12-07T05:04:57;7.00;;;3.53;;
75038;SDS011;63609;49.992;14.512;2022-12-07T05:07:24;8.48;;;3.95;;
75038;SDS011;63609;49.992;14.512;2022-12-07T05:09:51;8.27;;;4.43;;
75038;SDS011;63609;49.992;14.512;2022-12-07T05:12:17;8.77;;;5.30;;
75038;SDS011;63609;49.992;14.512;2022-12-07T05:14:44;9.63;;;4.60;;
75038;SDS011;63609;49.992;14.512;2022-12-07T05:17:11;8.48;;;4.35;;
75038;SDS011;63609;49.992;14.512;2022-12-07T05:19:38;8.43;;;3.45;;
75038;SDS011;63609;49.992;14.512;2022-12-07T05:22:04;10.07;;;4.47;;
75038;SDS011;63609;49.992;14.512;2022-12-07T05:24:31;7.90;;;4.28;;
75038;SDS011;63609;49.992;14.512;2022-12-07T05:26:58;9.38;;;5.18;;
75038;SDS011;63609;49.992;14.512;2022-12-07T05:31:51;9.02;;;4.55;;
75038;SDS011;63609;49.992;14.512;2022-12-07T05:34:18;7.28;;;4.38;;
75038;SDS011;63609;49.992;14.512;2022-12-07T05:36:45;10.10;;;4.47;;
75038;SDS011;63609;49.992;14.512;2022-12-07T05:39:11;13.30;;;6.35;;
75038;SDS011;63609;49.992;14.512;2022-12-07T05:41:38;11.77;;;4.35;;
75038;SDS011;63609;49.992;14.512;2022-12-07T05:44:23;7.53;;;4.57;;
75038;SDS011;63609;49.992;14.512;2022-12-07T05:46:50;7.32;;;3.92;;
75038;SDS011;63609;49.992;14.512;2022-12-07T05:49:17;8.02;;;4.57;;
75038;SDS011;63609;49.992;14.512;2022-12-07T05:51:44;8.48;;;5.28;;
75038;SDS011;63609;49.992;14.512;2022-12-07T05:54:11;10.70;;;4.72;;
75038;SDS011;63609;49.992;14.512;2022-12-07T05:56:38;9.00;;;4.50;;
75038;SDS011;63609;49.992;14.512;2022-12-07T06:01:52;9.90;;;4.35;;
75038;SDS011;63609;49.992;14.512;2022-12-07T06:04:21;7.13;;;4.18;;
75038;SDS011;63609;49.992;14.512;2022-12-07T06:06:49;10.18;;;5.47;;
75038;SDS011;63609;49.992;14.512;2022-12-07T06:09:17;10.88;;;5.03;;
75038;SDS011;63609;49.992;14.512;2022-12-07T06:11:44;11.55;;;4.20;;
75038;SDS011;63609;49.992;14.512;2022-12-07T06:14:30;10.05;;;5.00;;
75038;SDS011;63609;49.992;14.512;2022-12-07T06:16:57;9.85;;;4.90;;
75038;SDS011;63609;49.992;14.512;2022-12-07T06:19:25;8.30;;;3.35;;
75038;SDS011;63609;49.992;14.512;2022-12-07T06:24:18;8.35;;;3.78;;
75038;SDS011;63609;49.992;14.512;2022-12-07T06:26:45;8.38;;;4.30;;
75038;SDS011;63609;49.992;14.512;2022-12-07T06:29:12;7.53;;;4.20;;
75038;SDS011;63609;49.992;14.512;2022-12-07T06:34:08;7.22;;;3.63;;
75038;SDS011;63609;49.992;14.512;2022-12-07T06:36:36;7.95;;;3.08;;
75038;SDS011;63609;49.992;14.512;2022-12-07T06:39:04;9.18;;;4.05;;
75038;SDS011;63609;49.992;14.512;2022-12-07T06:41:32;11.98;;;6.22;;
75038;SDS011;63609;49.992;14.512;2022-12-07T06:43:58;12.27;;;6.20;;
75038;SDS011;63609;49.992;14.512;2022-12-07T06:46:25;14.50;;;7.88;;
75038;SDS011;63609;49.992;14.512;2022-12-07T06:48:52;10.15;;;5.95;;
75038;SDS011;63609;49.992;14.512;2022-12-07T06:53:45;8.60;;;3.72;;
75038;SDS011;63609;49.992;14.512;2022-12-07T06:56:12;11.02;;;4.53;;
75038;SDS011;63609;49.992;14.512;2022-12-07T06:58:39;6.10;;;2.95;;
75038;SDS011;63609;49.992;14.512;2022-12-07T07:01:12;9.27;;;4.53;;
75038;SDS011;63609;49.992;14.512;2022-12-07T07:03:41;9.27;;;4.25;;
75038;SDS011;63609;49.992;14.512;2022-12-07T07:06:08;9.20;;;3.72;;
75038;SDS011;63609;49.992;14.512;2022-12-07T07:08:35;5.90;;;3.28;;
75038;SDS011;63609;49.992;14.512;2022-12-07T07:11:03;6.25;;;3.67;;
75038;SDS011;63609;49.992;14.512;2022-12-07T07:13:31;7.25;;;3.90;;
75038;SDS011;63609;49.992;14.512;2022-12-07T07:18:25;7.60;;;3.88;;
75038;SDS011;63609;49.992;14.512;2022-12-07T07:20:52;5.65;;;3.47;;
75038;SDS011;63609;49.992;14.512;2022-12-07T07:23:19;6.95;;;3.47;;
75038;SDS011;63609;49.992;14.512;2022-12-07T07:25:47;7.40;;;3.75;;
75038;SDS011;63609;49.992;14.512;2022-12-07T07:28:14;6.05;;;2.42;;
75038;SDS011;63609;49.992;14.512;2022-12-07T07:30:41;7.43;;;3.30;;
75038;SDS011;63609;49.992;14.512;2022-12-07T07:35:35;5.10;;;2.30;;
75038;SDS011;63609;49.992;14.512;2022-12-07T07:38:02;5.22;;;2.33;;
75038;SDS011;63609;49.992;14.512;2022-12-07T07:42:56;7.30;;;2.88;;
75038;SDS011;63609;49.992;14.512;2022-12-07T07:45:24;7.97;;;4.15;;
75038;SDS011;63609;49.992;14.512;2022-12-07T07:47:52;5.63;;;2.83;;
75038;SDS011;63609;49.992;14.512;2022-12-07T07:50:19;5.43;;;3.25;;
75038;SDS011;63609;49.992;14.512;2022-12-07T07:52:47;5.20;;;2.92;;
75038;SDS011;63609;49.992;14.512;2022-12-07T07:55:14;4.90;;;2.55;;
75038;SDS011;63609;49.992;14.512;2022-12-07T07:57:43;7.38;;;3.67;;
75038;SDS011;63609;49.992;14.512;2022-12-07T08:00:18;5.70;;;3.15;;
75038;SDS011;63609;49.992;14.512;2022-12-07T08:02:45;5.63;;;3.17;;
75038;SDS011;63609;49.992;14.512;2022-12-07T08:05:12;8.15;;;3.80;;
75038;SDS011;63609;49.992;14.512;2022-12-07T08:07:39;4.35;;;3.13;;
75038;SDS011;63609;49.992;14.512;2022-12-07T08:10:07;7.80;;;4.20;;
75038;SDS011;63609;49.992;14.512;2022-12-07T08:12:40;4.75;;;2.83;;
75038;SDS011;63609;49.992;14.512;2022-12-07T08:15:28;5.53;;;3.25;;
75038;SDS011;63609;49.992;14.512;2022-12-07T08:17:57;7.55;;;3.70;;
75038;SDS011;63609;49.992;14.512;2022-12-07T08:20:24;7.50;;;2.88;;
75038;SDS011;63609;49.992;14.512;2022-12-07T08:22:51;8.30;;;3.55;;
75038;SDS011;63609;49.992;14.512;2022-12-07T08:25:18;5.55;;;3.42;;
75038;SDS011;63609;49.992;14.512;2022-12-07T08:27:45;5.55;;;3.33;;
75038;SDS011;63609;49.992;14.512;2022-12-07T08:32:39;6.20;;;4.50;;
75038;SDS011;63609;49.992;14.512;2022-12-07T08:35:06;5.60;;;3.05;;
75038;SDS011;63609;49.992;14.512;2022-12-07T08:37:33;5.18;;;3.10;;
75038;SDS011;63609;49.992;14.512;2022-12-07T08:40:00;8.82;;;4.80;;
75038;SDS011;63609;49.992;14.512;2022-12-07T08:42:27;7.47;;;4.10;;
75038;SDS011;63609;49.992;14.512;2022-12-07T08:44:56;8.82;;;4.40;;
75038;SDS011;63609;49.992;14.512;2022-12-07T08:47:23;6.05;;;3.70;;
75038;SDS011;63609;49.992;14.512;2022-12-07T08:49:51;9.70;;;4.32;;
75038;SDS011;63609;49.992;14.512;2022-12-07T08:52:20;6.00;;;3.45;;
75038;SDS011;63609;49.992;14.512;2022-12-07T08:54:50;7.10;;;3.58;;
75038;SDS011;63609;49.992;14.512;2022-12-07T08:57:16;4.55;;;2.67;;
75038;SDS011;63609;49.992;14.512;2022-12-07T08:59:48;7.93;;;4.30;;
75038;SDS011;63609;49.992;14.512;2022-12-07T09:02:14;7.40;;;4.43;;
75038;SDS011;63609;49.992;14.512;2022-12-07T09:04:41;8.23;;;4.65;;
75038;SDS011;63609;49.992;14.512;2022-12-07T09:07:08;8.10;;;5.97;;
75038;SDS011;63609;49.992;14.512;2022-12-07T09:09:35;8.07;;;5.38;;
75038;SDS011;63609;49.992;14.512;2022-12-07T09:12:02;9.57;;;4.57;;
75038;SDS011;63609;49.992;14.512;2022-12-07T09:14:29;8.48;;;5.13;;
75038;SDS011;63609;49.992;14.512;2022-12-07T09:17:04;7.47;;;4.68;;
75038;SDS011;63609;49.992;14.512;2022-12-07T09:19:32;7.50;;;4.43;;
75038;SDS011;63609;49.992;14.512;2022-12-07T09:22:00;9.70;;;4.50;;
75038;SDS011;63609;49.992;14.512;2022-12-07T09:24:27;8.65;;;4.95;;
75038;SDS011;63609;49.992;14.512;2022-12-07T09:26:54;8.60;;;3.60;;
75038;SDS011;63609;49.992;14.512;2022-12-07T09:29:20;6.75;;;4.25;;
75038;SDS011;63609;49.992;14.512;2022-12-07T09:31:47;7.28;;;4.82;;
75038;SDS011;63609;49.992;14.512;2022-12-07T09:34:14;8.65;;;3.88;;
75038;SDS011;63609;49.992;14.512;2022-12-07T09:36:40;8.32;;;5.47;;
75038;SDS011;63609;49.992;14.512;2022-12-07T09:39:08;9.77;;;5.22;;
75038;SDS011;63609;49.992;14.512;2022-12-07T09:41:39;9.85;;;5.50;;
75038;SDS011;63609;49.992;14.512;2022-12-07T09:44:10;7.03;;;4.50;;
75038;SDS011;63609;49.992;14.512;2022-12-07T09:46:40;12.20;;;6.93;;
75038;SDS011;63609;49.992;14.512;2022-12-07T09:49:13;8.02;;;4.25;;
75038;SDS011;63609;49.992;14.512;2022-12-07T09:51:46;7.05;;;4.00;;
75038;SDS011;63609;49.992;14.512;2022-12-07T09:54:16;8.02;;;3.72;;
75038;SDS011;63609;49.992;14.512;2022-12-07T09:56:43;5.25;;;3.33;;
75038;SDS011;63609;49.992;14.512;2022-12-07T09:59:16;6.13;;;3.63;;
75038;SDS011;63609;49.992;14.512;2022-12-07T10:01:49;7.15;;;5.07;;
75038;SDS011;63609;49.992;14.512;2022-12-07T10:04:21;7.38;;;4.25;;
75038;SDS011;63609;49.992;14.512;2022-12-07T10:06:50;9.88;;;4.88;;
75038;SDS011;63609;49.992;14.512;2022-12-07T10:09:18;9.35;;;5.32;;
75038;SDS011;63609;49.992;14.512;2022-12-07T10:14:32;6.93;;;3.17;;
75038;SDS011;63609;49.992;14.512;2022-12-07T10:17:37;5.93;;;4.22;;
75038;SDS011;63609;49.992;14.512;2022-12-07T10:25:24;8.70;;;4.05;;
75038;SDS011;63609;49.992;14.512;2022-12-07T10:27:59;7.80;;;4.35;;
75038;SDS011;63609;49.992;14.512;2022-12-07T10:30:28;8.63;;;4.97;;
75038;SDS011;63609;49.992;14.512;2022-12-07T10:32:57;9.15;;;4.55;;
75038;SDS011;63609;49.992;14.512;2022-12-07T10:37:52;10.45;;;4.32;;
75038;SDS011;63609;49.992;14.512;2022-12-07T10:40:25;7.55;;;5.07;;
75038;SDS011;63609;49.992;14.512;2022-12-07T10:54:24;6.93;;;4.00;;
75038;SDS011;63609;49.992;14.512;2022-12-07T10:57:21;6.25;;;3.85;;
75038;SDS011;63609;49.992;14.512;2022-12-07T11:00:17;7.75;;;3.28;;
75038;SDS011;63609;49.992;14.512;2022-12-07T11:16:06;6.35;;;3.45;;
75038;SDS011;63609;49.992;14.512;2022-12-07T11:19:13;4.47;;;2.38;;
75038;SDS011;63609;49.992;14.512;2022-12-07T11:21:48;5.47;;;3.95;;
75038;SDS011;63609;49.992;14.512;2022-12-07T11:27:22;7.10;;;3.80;;
75038;SDS011;63609;49.992;14.512;2022-12-07T11:30:10;7.70;;;3.35;;
75038;SDS011;63609;49.992;14.512;2022-12-07T11:38:37;6.80;;;4.35;;
75038;SDS011;63609;49.992;14.512;2022-12-07T11:41:10;7.68;;;4.10;;
75038;SDS011;63609;49.992;14.512;2022-12-07T11:43:56;7.05;;;2.67;;
75038;SDS011;63609;49.992;14.512;2022-12-07T11:46:34;9.20;;;4.90;;
75038;SDS011;63609;49.992;14.512;2022-12-07T11:55:14;5.95;;;3.20;;
75038;SDS011;63609;49.992;14.512;2022-12-07T11:57:48;6.82;;;3.50;;
75038;SDS011;63609;49.992;14.512;2022-12-07T12:00:22;8.75;;;4.00;;
75038;SDS011;63609;49.992;14.512;2022-12-07T12:05:35;7.78;;;3.38;;
75038;SDS011;63609;49.992;14.512;2022-12-07T12:08:11;7.25;;;3.90;;
75038;SDS011;63609;49.992;14.512;2022-12-07T12:11:14;6.05;;;3.60;;
75038;SDS011;63609;49.992;14.512;2022-12-07T12:20:26;8.25;;;3.97;;
75038;SDS011;63609;49.992;14.512;2022-12-07T12:25:58;4.78;;;2.83;;
75038;SDS011;63609;49.992;14.512;2022-12-07T12:31:33;4.50;;;2.72;;
75038;SDS011;63609;49.992;14.512;2022-12-07T12:33:58;7.05;;;3.30;;
75038;SDS011;63609;49.992;14.512;2022-12-07T12:39:12;5.43;;;2.60;;
75038;SDS011;63609;49.992;14.512;2022-12-07T12:46:45;5.82;;;2.67;;
75038;SDS011;63609;49.992;14.512;2022-12-07T12:51:56;4.35;;;2.53;;
75038;SDS011;63609;49.992;14.512;2022-12-07T12:59:57;6.20;;;2.60;;
75038;SDS011;63609;49.992;14.512;2022-12-07T13:02:28;6.20;;;2.70;;
75038;SDS011;63609;49.992;14.512;2022-12-07T13:18:22;4.10;;;2.22;;
75038;SDS011;63609;49.992;14.512;2022-12-07T13:20:51;7.65;;;3.20;;
75038;SDS011;63609;49.992;14.512;2022-12-07T13:24:20;5.72;;;2.90;;
75038;SDS011;63609;49.992;14.512;2022-12-07T13:28:50;6.47;;;3.85;;
75038;SDS011;63609;49.992;14.512;2022-12-07T13:31:35;6.75;;;3.40;;
75038;SDS011;63609;49.992;14.512;2022-12-07T13:34:26;7.65;;;3.60;;
75038;SDS011;63609;49.992;14.512;2022-12-07T13:37:04;5.68;;;2.47;;
75038;SDS011;63609;49.992;14.512;2022-12-07T13:39:55;6.80;;;3.17;;
75038;SDS011;63609;49.992;14.512;2022-12-07T13:42:26;5.72;;;3.33;;
75038;SDS011;63609;49.992;14.512;2022-12-07T13:44:57;6.40;;;3.70;;
75038;SDS011;63609;49.992;14.512;2022-12-07T13:50:22;6.78;;;2.97;;
75038;SDS011;63609;49.992;14.512;2022-12-07T13:52:54;5.22;;;2.58;;
75038;SDS011;63609;49.992;14.512;2022-12-07T13:55:22;6.13;;;3.10;;
75038;SDS011;63609;49.992;14.512;2022-12-07T13:57:49;5.28;;;3.22;;
75038;SDS011;63609;49.992;14.512;2022-12-07T14:00:19;6.45;;;3.38;;
75038;SDS011;63609;49.992;14.512;2022-12-07T14:05:24;6.07;;;2.40;;
75038;SDS011;63609;49.992;14.512;2022-12-07T14:10:28;4.93;;;3.05;;
75038;SDS011;63609;49.992;14.512;2022-12-07T14:13:00;6.38;;;2.97;;
75038;SDS011;63609;49.992;14.512;2022-12-07T14:15:31;6.70;;;3.88;;
75038;SDS011;63609;49.992;14.512;2022-12-07T14:18:01;6.95;;;3.97;;
75038;SDS011;63609;49.992;14.512;2022-12-07T14:20:33;7.35;;;2.95;;
75038;SDS011;63609;49.992;14.512;2022-12-07T14:23:05;6.40;;;3.40;;
75038;SDS011;63609;49.992;14.512;2022-12-07T14:25:49;6.28;;;2.95;;
75038;SDS011;63609;49.992;14.512;2022-12-07T14:28:31;9.10;;;3.35;;
75038;SDS011;63609;49.992;14.512;2022-12-07T14:31:00;6.13;;;3.72;;
75038;SDS011;63609;49.992;14.512;2022-12-07T14:33:27;6.03;;;3.35;;
75038;SDS011;63609;49.992;14.512;2022-12-07T14:35:55;8.00;;;3.75;;
75038;SDS011;63609;49.992;14.512;2022-12-07T14:38:25;5.32;;;3.15;;
75038;SDS011;63609;49.992;14.512;2022-12-07T14:40:53;7.72;;;3.15;;
75038;SDS011;63609;49.992;14.512;2022-12-07T14:43:21;7.63;;;3.47;;
75038;SDS011;63609;49.992;14.512;2022-12-07T14:45:47;6.18;;;2.95;;
75038;SDS011;63609;49.992;14.512;2022-12-07T14:48:15;5.93;;;3.17;;
75038;SDS011;63609;49.992;14.512;2022-12-07T14:51:01;6.50;;;3.92;;
75038;SDS011;63609;49.992;14.512;2022-12-07T14:53:50;7.40;;;3.10;;
75038;SDS011;63609;49.992;14.512;2022-12-07T14:56:23;7.03;;;2.95;;
75038;SDS011;63609;49.992;14.512;2022-12-07T14:58:50;8.80;;;3.53;;
75038;SDS011;63609;49.992;14.512;2022-12-07T15:01:17;5.35;;;2.70;;
75038;SDS011;63609;49.992;14.512;2022-12-07T15:03:44;6.72;;;3.45;;
75038;SDS011;63609;49.992;14.512;2022-12-07T15:08:40;5.25;;;2.80;;
75038;SDS011;63609;49.992;14.512;2022-12-07T15:11:10;8.68;;;4.07;;
75038;SDS011;63609;49.992;14.512;2022-12-07T15:13:39;4.80;;;2.47;;
75038;SDS011;63609;49.992;14.512;2022-12-07T15:16:24;7.13;;;3.92;;
75038;SDS011;63609;49.992;14.512;2022-12-07T15:18:51;5.80;;;3.28;;
75038;SDS011;63609;49.992;14.512;2022-12-07T15:21:38;7.30;;;3.72;;
75038;SDS011;63609;49.992;14.512;2022-12-07T15:24:05;7.95;;;3.33;;
75038;SDS011;63609;49.992;14.512;2022-12-07T15:26:32;6.75;;;3.50;;
75038;SDS011;63609;49.992;14.512;2022-12-07T15:31:26;5.80;;;3.58;;
75038;SDS011;63609;49.992;14.512;2022-12-07T15:34:12;8.82;;;4.07;;
75038;SDS011;63609;49.992;14.512;2022-12-07T15:36:39;9.02;;;3.75;;
75038;SDS011;63609;49.992;14.512;2022-12-07T15:39:06;8.40;;;5.20;;
75038;SDS011;63609;49.992;14.512;2022-12-07T15:41:41;5.60;;;3.55;;
75038;SDS011;63609;49.992;14.512;2022-12-07T15:44:09;7.25;;;3.53;;
75038;SDS011;63609;49.992;14.512;2022-12-07T15:46:57;5.65;;;3.55;;
75038;SDS011;63609;49.992;14.512;2022-12-07T15:51:50;8.68;;;3.35;;
75038;SDS011;63609;49.992;14.512;2022-12-07T15:54:24;6.80;;;3.47;;
75038;SDS011;63609;49.992;14.512;2022-12-07T15:56:54;6.15;;;3.78;;
75038;SDS011;63609;49.992;14.512;2022-12-07T15:59:22;9.50;;;4.35;;
75038;SDS011;63609;49.992;14.512;2022-12-07T16:01:49;7.05;;;4.43;;
75038;SDS011;63609;49.992;14.512;2022-12-07T16:04:16;8.15;;;3.88;;
75038;SDS011;63609;49.992;14.512;2022-12-07T16:06:43;10.18;;;3.78;;
75038;SDS011;63609;49.992;14.512;2022-12-07T16:09:10;9.23;;;4.00;;
75038;SDS011;63609;49.992;14.512;2022-12-07T16:14:04;7.93;;;3.90;;
75038;SDS011;63609;49.992;14.512;2022-12-07T16:16:31;7.18;;;3.80;;
75038;SDS011;63609;49.992;14.512;2022-12-07T16:18:58;9.60;;;4.88;;
75038;SDS011;63609;49.992;14.512;2022-12-07T16:21:25;8.80;;;4.35;;
75038;SDS011;63609;49.992;14.512;2022-12-07T16:23:51;7.43;;;4.63;;
75038;SDS011;63609;49.992;14.512;2022-12-07T16:26:19;8.55;;;4.47;;
75038;SDS011;63609;49.992;14.512;2022-12-07T16:28:48;8.02;;;4.22;;
75038;SDS011;63609;49.992;14.512;2022-12-07T16:31:17;6.32;;;3.55;;
75038;SDS011;63609;49.992;14.512;2022-12-07T16:33:46;6.45;;;3.67;;
75038;SDS011;63609;49.992;14.512;2022-12-07T16:36:13;12.05;;;4.40;;
75038;SDS011;63609;49.992;14.512;2022-12-07T16:39:02;6.43;;;3.58;;
75038;SDS011;63609;49.992;14.512;2022-12-07T16:41:30;9.82;;;3.85;;
75038;SDS011;63609;49.992;14.512;2022-12-07T16:43:57;6.53;;;3.13;;
75038;SDS011;63609;49.992;14.512;2022-12-07T16:46:28;7.20;;;3.08;;
75038;SDS011;63609;49.992;14.512;2022-12-07T16:48:55;9.55;;;5.22;;
75038;SDS011;63609;49.992;14.512;2022-12-07T16:51:22;15.63;;;5.82;;
75038;SDS011;63609;49.992;14.512;2022-12-07T16:53:48;5.93;;;4.10;;
75038;SDS011;63609;49.992;14.512;2022-12-07T16:56:18;7.25;;;3.35;;
75038;SDS011;63609;49.992;14.512;2022-12-07T16:58:45;10.55;;;4.60;;
75038;SDS011;63609;49.992;14.512;2022-12-07T17:01:18;6.38;;;3.20;;
75038;SDS011;63609;49.992;14.512;2022-12-07T17:03:48;5.85;;;3.83;;
75038;SDS011;63609;49.992;14.512;2022-12-07T17:06:16;7.82;;;3.83;;
75038;SDS011;63609;49.992;14.512;2022-12-07T17:08:44;9.18;;;3.90;;
75038;SDS011;63609;49.992;14.512;2022-12-07T17:11:13;9.38;;;4.90;;
75038;SDS011;63609;49.992;14.512;2022-12-07T17:13:41;9.48;;;4.35;;
75038;SDS011;63609;49.992;14.512;2022-12-07T17:16:26;7.18;;;3.67;;
75038;SDS011;63609;49.992;14.512;2022-12-07T17:18:54;7.35;;;2.67;;
75038;SDS011;63609;49.992;14.512;2022-12-07T17:21:20;13.57;;;5.05;;
75038;SDS011;63609;49.992;14.512;2022-12-07T17:23:47;5.72;;;3.90;;
75038;SDS011;63609;49.992;14.512;2022-12-07T17:26:16;6.07;;;3.30;;
75038;SDS011;63609;49.992;14.512;2022-12-07T17:28:49;7.40;;;3.83;;
75038;SDS011;63609;49.992;14.512;2022-12-07T17:31:16;17.75;;;5.38;;
75038;SDS011;63609;49.992;14.512;2022-12-07T17:33:45;7.60;;;4.20;;
75038;SDS011;63609;49.992;14.512;2022-12-07T17:36:13;5.30;;;3.08;;
75038;SDS011;63609;49.992;14.512;2022-12-07T17:38:42;6.05;;;3.17;;
75038;SDS011;63609;49.992;14.512;2022-12-07T17:44:00;7.88;;;4.70;;
75038;SDS011;63609;49.992;14.512;2022-12-07T17:46:32;5.80;;;3.00;;
75038;SDS011;63609;49.992;14.512;2022-12-07T17:48:59;7.60;;;4.13;;
75038;SDS011;63609;49.992;14.512;2022-12-07T17:51:27;9.38;;;4.65;;